createdAt,value
2023-02-12T00:00:52.926Z,9.33
2023-02-12T00:05:55.541Z,9.32
2023-02-12T00:10:57.112Z,9.33
2023-02-12T00:15:58.803Z,9.32
2023-02-12T00:21:01.265Z,9.31
2023-02-12T00:26:11.203Z,9.29
2023-02-12T00:31:18.618Z,9.27
2023-02-12T00:36:22.679Z,9.27
2023-02-12T00:41:25.102Z,9.27
2023-02-12T00:46:26.641Z,9.25
2023-02-12T00:51:28.009Z,9.24
2023-02-12T00:56:29.339Z,9.19
2023-02-12T01:01:30.821Z,9.14
2023-02-12T01:06:32.221Z,9.15
2023-02-12T01:11:33.580Z,8.99
2023-02-12T01:16:36.555Z,8.88
2023-02-12T01:21:38.194Z,8.97
2023-02-12T01:26:39.600Z,9.03
2023-02-12T01:31:42.274Z,9.05
2023-02-12T01:36:43.803Z,9.03
2023-02-12T01:41:45.763Z,8.98
2023-02-12T01:46:59.044Z,8.97
2023-02-12T01:52:15.700Z,8.97
2023-02-12T01:57:18.197Z,8.95
2023-02-12T02:02:19.731Z,8.96
2023-02-12T02:07:21.085Z,8.93
2023-02-12T02:12:41.348Z,8.95
2023-02-12T02:17:58.188Z,8.89
2023-02-12T02:23:17.699Z,8.93
2023-02-12T02:28:42.563Z,8.95
2023-02-12T02:33:56.404Z,8.97
2023-02-12T02:39:15.809Z,8.99
2023-02-12T02:44:23.355Z,9.02
2023-02-12T02:49:34.568Z,9.02
2023-02-12T02:54:47.537Z,9.02
2023-02-12T03:00:03.972Z,9.04
2023-02-12T03:05:26.693Z,9.06
2023-02-12T03:10:36.617Z,9.00
2023-02-12T03:15:44.576Z,9.02
2023-02-12T03:20:51.513Z,9.05
2023-02-12T03:25:58.731Z,9.05
2023-02-12T03:31:29.370Z,9.02
2023-02-12T03:36:41.286Z,9.06
2023-02-12T03:42:07.418Z,9.00
2023-02-12T03:47:20.717Z,9.02
2023-02-12T03:52:22.380Z,9.06
2023-02-12T03:57:30.593Z,8.97
2023-02-12T04:02:32.383Z,9.03
2023-02-12T04:07:36.731Z,9.03
2023-02-12T04:12:43.868Z,9.00
2023-02-12T04:18:02.584Z,8.97
2023-02-12T04:23:29.851Z,9.00
2023-02-12T04:28:42.920Z,9.00
2023-02-12T04:34:03.744Z,8.98
2023-02-12T04:39:11.163Z,8.99
2023-02-12T04:44:23.670Z,8.96
2023-02-12T04:49:25.545Z,8.98
2023-02-12T04:54:26.958Z,9.01
2023-02-12T04:59:28.412Z,9.02
2023-02-12T05:04:29.743Z,9.04
2023-02-12T05:09:31.090Z,9.05
2023-02-12T05:14:32.421Z,9.03
2023-02-12T05:19:33.767Z,8.97
2023-02-12T05:24:35.181Z,8.97
2023-02-12T05:29:36.694Z,8.92
2023-02-12T05:34:38.166Z,8.96
2023-02-12T05:39:39.610Z,8.99
2023-02-12T05:44:40.946Z,9.00
2023-02-12T05:49:42.817Z,9.04
2023-02-12T05:54:44.211Z,9.06
2023-02-12T05:59:45.608Z,9.07
2023-02-12T06:04:48.597Z,9.05
2023-02-12T06:09:50.607Z,9.08
2023-02-12T06:14:51.966Z,9.10
2023-02-12T06:19:53.269Z,9.13
2023-02-12T06:24:54.618Z,9.12
2023-02-12T06:29:55.963Z,9.14
2023-02-12T06:34:57.335Z,9.17
2023-02-12T06:39:58.677Z,9.19
2023-02-12T06:45:00.008Z,9.23
2023-02-12T06:50:01.410Z,9.22
2023-02-12T06:55:02.848Z,9.21
2023-02-12T07:00:04.945Z,9.10
2023-02-12T07:05:06.554Z,8.99
2023-02-12T07:10:08.700Z,8.92
2023-02-12T07:15:11.019Z,8.86
2023-02-12T07:20:12.826Z,8.84
2023-02-12T07:25:14.486Z,8.81
2023-02-12T07:30:16.033Z,8.81
2023-02-12T07:35:17.437Z,8.77
2023-02-12T07:40:18.839Z,8.79
2023-02-12T07:45:20.177Z,8.82
2023-02-12T07:50:21.683Z,8.89
2023-02-12T07:55:23.089Z,8.93
2023-02-12T08:00:24.604Z,8.99
2023-02-12T08:05:27.800Z,9.04
2023-02-12T08:10:32.271Z,9.07
2023-02-12T08:15:33.777Z,9.17
2023-02-12T08:20:35.151Z,9.21
2023-02-12T08:25:36.542Z,9.30
2023-02-12T08:30:37.987Z,9.43
2023-02-12T08:35:39.350Z,9.51
2023-02-12T08:40:43.015Z,9.60
2023-02-12T08:45:44.518Z,9.63
2023-02-12T08:50:46.554Z,9.75
2023-02-12T08:55:49.704Z,9.84
2023-02-12T09:00:51.160Z,9.95
2023-02-12T09:05:53.024Z,10.03
2023-02-12T09:10:54.445Z,10.07
2023-02-12T09:15:56.332Z,10.23
2023-02-12T09:21:07.453Z,10.27
2023-02-12T09:26:11.816Z,10.27
2023-02-12T09:31:15.717Z,10.35
2023-02-12T09:36:17.445Z,10.41
2023-02-12T09:41:46.518Z,10.47
2023-02-12T09:46:59.979Z,10.55
2023-02-12T09:52:02.832Z,10.60
2023-02-12T09:57:14.189Z,10.57
2023-02-12T10:02:17.865Z,10.71
2023-02-12T10:07:47.077Z,10.75
2023-02-12T10:12:57.634Z,10.83
2023-02-12T10:18:20.104Z,11.00
2023-02-12T10:23:59.700Z,11.00
2023-02-12T10:29:36.950Z,11.18
2023-02-12T10:34:41.212Z,11.18
2023-02-12T10:39:48.775Z,11.22
2023-02-12T10:44:50.070Z,11.32
2023-02-12T10:49:59.743Z,11.43
2023-02-12T10:55:01.615Z,11.37
2023-02-12T11:00:26.927Z,11.42
2023-02-12T11:05:30.922Z,11.59
2023-02-12T11:10:38.571Z,11.71
2023-02-12T11:15:48.742Z,11.85
2023-02-12T11:20:52.565Z,11.93
2023-02-12T11:26:00.248Z,11.95
2023-02-12T11:31:23.831Z,12.00
2023-02-12T11:36:27.514Z,11.99
2023-02-12T11:41:39.548Z,12.12
2023-02-12T11:46:49.710Z,12.18
2023-02-12T11:51:51.868Z,12.38
2023-02-12T11:56:55.282Z,12.63
2023-02-12T12:02:01.598Z,12.74
2023-02-12T12:07:13.857Z,12.77
2023-02-12T12:12:53.049Z,12.99
2023-02-12T12:18:17.554Z,13.04
2023-02-12T12:23:24.018Z,13.31
2023-02-12T12:28:41.260Z,13.47
2023-02-12T12:34:03.341Z,13.58
2023-02-12T12:39:21.409Z,13.67
2023-02-12T12:44:35.531Z,13.83
2023-02-12T12:50:08.470Z,14.07
2023-02-12T12:55:31.664Z,14.03
2023-02-12T13:00:33.035Z,14.31
2023-02-12T13:05:53.443Z,14.37
2023-02-12T13:11:06.379Z,14.16
2023-02-12T13:16:16.634Z,14.02
2023-02-12T13:21:27.147Z,14.08
2023-02-12T13:26:42.814Z,14.04
2023-02-12T13:31:58.033Z,13.99
2023-02-12T13:37:06.619Z,14.04
2023-02-12T13:42:07.969Z,13.99
2023-02-12T13:47:48.087Z,13.94
2023-02-12T13:52:59.597Z,14.05
2023-02-12T13:58:34.883Z,14.21
2023-02-12T14:03:38.000Z,14.21
2023-02-12T14:08:42.387Z,14.07
2023-02-12T14:13:56.348Z,14.07
2023-02-12T14:19:35.460Z,14.05
2023-02-12T14:24:36.797Z,13.88
2023-02-12T14:29:38.146Z,13.80
2023-02-12T14:34:39.589Z,13.86
2023-02-12T14:39:41.108Z,13.82
2023-02-12T14:44:46.792Z,13.83
2023-02-12T14:49:55.636Z,13.80
2023-02-12T14:55:18.158Z,13.78
2023-02-12T15:00:32.294Z,13.74
2023-02-12T15:05:41.523Z,13.59
2023-02-12T15:10:49.740Z,13.45
2023-02-12T15:16:22.049Z,13.34
2023-02-12T15:21:27.850Z,13.31
2023-02-12T15:26:33.284Z,13.20
2023-02-12T15:31:35.301Z,13.08
2023-02-12T15:36:37.983Z,12.93
2023-02-12T15:41:40.361Z,12.82
2023-02-12T15:46:53.502Z,12.73
2023-02-12T15:51:56.429Z,12.67
2023-02-12T15:56:58.197Z,12.64
2023-02-12T16:02:03.278Z,12.43
2023-02-12T16:07:04.790Z,12.31
2023-02-12T16:12:12.170Z,12.19
2023-02-12T16:17:21.176Z,12.14
2023-02-12T16:22:27.321Z,12.05
2023-02-12T16:27:31.500Z,12.04
2023-02-12T16:32:38.920Z,12.00
2023-02-12T16:37:44.018Z,12.00
2023-02-12T16:42:48.454Z,11.87
2023-02-12T16:47:51.161Z,11.86
2023-02-12T16:53:03.281Z,11.81
2023-02-12T16:58:04.631Z,11.82
2023-02-12T17:03:06.037Z,11.79
2023-02-12T17:08:16.030Z,11.77
2023-02-12T17:13:18.107Z,11.76
2023-02-12T17:18:20.314Z,11.75
2023-02-12T17:23:22.794Z,11.72
2023-02-12T17:28:25.345Z,11.64
2023-02-12T17:33:27.613Z,11.69
2023-02-12T17:38:29.019Z,11.63
2023-02-12T17:43:30.344Z,11.52
2023-02-12T17:48:31.848Z,11.51
2023-02-12T17:53:33.180Z,11.46
2023-02-12T17:58:34.537Z,11.48
2023-02-12T18:03:36.355Z,11.45
2023-02-12T18:08:37.696Z,11.48
2023-02-12T18:13:39.466Z,11.42
2023-02-12T18:18:40.988Z,11.40
2023-02-12T18:23:42.973Z,11.36
2023-02-12T18:28:45.243Z,11.26
2023-02-12T18:33:46.703Z,11.30
2023-02-12T18:38:49.765Z,11.26
2023-02-12T18:43:51.618Z,11.26
2023-02-12T18:48:53.857Z,11.21
2023-02-12T18:54:05.272Z,11.25
2023-02-12T18:59:08.106Z,11.20
2023-02-12T19:04:12.637Z,11.22
2023-02-12T19:09:16.589Z,11.24
2023-02-12T19:14:19.480Z,11.20
2023-02-12T19:19:21.644Z,11.23
2023-02-12T19:24:23.100Z,11.17
2023-02-12T19:29:24.777Z,11.07
2023-02-12T19:34:27.149Z,11.07
2023-02-12T19:39:28.752Z,11.12
2023-02-12T19:44:30.093Z,11.10
2023-02-12T19:49:31.517Z,11.06
2023-02-12T19:54:32.964Z,11.10
2023-02-12T19:59:35.347Z,11.07
2023-02-12T20:04:36.849Z,11.04
2023-02-12T20:09:38.493Z,10.99
2023-02-12T20:14:39.812Z,11.03
2023-02-12T20:19:41.147Z,11.02
2023-02-12T20:24:42.565Z,10.97
2023-02-12T20:29:43.961Z,10.99
2023-02-12T20:34:50.827Z,11.01
2023-02-12T20:39:52.628Z,10.99
2023-02-12T20:44:53.999Z,10.94
2023-02-12T20:49:56.683Z,10.91
2023-02-12T20:54:58.262Z,10.88
2023-02-12T20:59:59.603Z,10.90
2023-02-12T21:05:00.967Z,10.95
2023-02-12T21:10:02.291Z,11.00
2023-02-12T21:15:03.929Z,10.91
2023-02-12T21:20:07.083Z,10.94
2023-02-12T21:25:08.450Z,10.94
2023-02-12T21:30:10.137Z,10.99
2023-02-12T21:35:11.606Z,10.94
2023-02-12T21:40:13.115Z,10.98
2023-02-12T21:45:19.038Z,10.96
2023-02-12T21:50:20.946Z,10.97
2023-02-12T21:55:22.322Z,10.94
2023-02-12T22:00:23.743Z,10.90
2023-02-12T22:05:25.219Z,10.95
2023-02-12T22:10:27.757Z,10.96
2023-02-12T22:15:29.130Z,10.95
2023-02-12T22:20:30.492Z,10.96
2023-02-12T22:25:33.395Z,10.95
2023-02-12T22:30:34.753Z,10.92
2023-02-12T22:35:36.115Z,10.97
2023-02-12T22:40:37.554Z,10.97
2023-02-12T22:45:43.563Z,10.99
2023-02-12T22:50:44.942Z,10.99
2023-02-12T22:55:46.307Z,10.99
2023-02-12T23:00:47.685Z,10.98
2023-02-12T23:05:48.998Z,11.00
2023-02-12T23:10:50.385Z,10.99
2023-02-12T23:15:51.923Z,10.95
2023-02-12T23:20:53.832Z,10.95
2023-02-12T23:25:55.544Z,10.94
2023-02-12T23:30:57.385Z,10.95
2023-02-12T23:35:59.192Z,10.94
2023-02-12T23:41:00.954Z,10.91
2023-02-12T23:46:02.473Z,10.91
2023-02-12T23:51:04.381Z,10.89
2023-02-12T23:56:06.797Z,10.89
